Time;durP1;ratioP1;P1;durP2;ratioP2;P2;SDS_P1;SDS_P2;PMS_P1;PMS_P2;Temp;Humidity;BMP_temperature;BMP_pressure;BME280_temperature;BME280_humidity;BME280_pressure;Samples;Min_cycle;Max_cycle;Signal;HPM_P1;HPM_P2
2023/12/02 00:00:45;;;;;;;16.38;7.95;;;;;;;0.34;100.00;98731.44;5080248;28;20090;-80
2023/12/02 00:03:29;;;;;;;12.40;7.90;;;;;;;0.39;100.00;98729.28;5081139;28;20082;-83
2023/12/02 00:06:13;;;;;;;21.77;9.30;;;;;;;0.50;100.00;98735.25;5081465;28;20501;-81
2023/12/02 00:08:57;;;;;;;17.80;9.95;;;;;;;0.44;100.00;98720.31;5084926;28;20038;-81
2023/12/02 00:11:40;;;;;;;20.25;10.65;;;;;;;0.32;100.00;98717.88;5076793;28;20047;-81
2023/12/02 00:14:24;;;;;;;22.65;12.05;;;;;;;0.21;100.00;98725.75;5079510;28;20084;-81
2023/12/02 00:17:08;;;;;;;22.40;12.05;;;;;;;0.26;100.00;98729.53;5080362;28;20393;-81
2023/12/02 00:19:52;;;;;;;20.33;11.32;;;;;;;0.22;100.00;98722.22;5082020;28;20439;-80
2023/12/02 00:22:36;;;;;;;23.73;12.38;;;;;;;0.16;100.00;98720.16;5075800;28;20043;-81
2023/12/02 00:25:20;;;;;;;37.00;21.15;;;;;;;0.04;100.00;98722.06;5077362;28;20047;-80
2023/12/02 00:28:04;;;;;;;31.58;16.50;;;;;;;-0.08;100.00;98726.53;5079297;28;20047;-81
2023/12/02 00:30:48;;;;;;;27.67;15.10;;;;;;;-0.22;100.00;98725.97;5078509;28;20040;-80
2023/12/02 00:33:32;;;;;;;24.55;13.80;;;;;;;-0.36;100.00;98718.63;5078513;28;20547;-80
2023/12/02 00:36:16;;;;;;;22.90;12.00;;;;;;;-0.41;100.00;98724.16;5078259;28;20520;-80
2023/12/02 00:39:00;;;;;;;15.27;7.32;;;;;;;-0.27;100.00;98722.16;5076559;28;20031;-81
2023/12/02 00:41:45;;;;;;;16.13;7.53;;;;;;;-0.02;100.00;98723.41;5081278;28;20063;-80
2023/12/02 00:44:29;;;;;;;15.82;8.02;;;;;;;0.02;100.00;98717.06;5081836;28;20055;-79
2023/12/02 00:47:13;;;;;;;16.92;8.48;;;;;;;0.12;100.00;98715.28;5078229;28;20065;-80
2023/12/02 00:49:57;;;;;;;20.95;10.05;;;;;;;0.12;100.00;98707.53;5087168;28;20414;-81
2023/12/02 00:52:41;;;;;;;15.60;8.18;;;;;;;0.14;100.00;98710.00;5076914;28;20101;-81
2023/12/02 00:55:26;;;;;;;18.77;9.82;;;;;;;0.17;100.00;98701.97;5077108;28;20038;-80
2023/12/02 00:58:10;;;;;;;13.88;7.68;;;;;;;0.18;100.00;98708.75;5075863;28;20114;-80
2023/12/02 01:00:54;;;;;;;15.05;7.75;;;;;;;0.09;100.00;98707.81;5080129;28;20413;-80
2023/12/02 01:03:37;;;;;;;13.43;6.93;;;;;;;0.05;100.00;98706.47;5078630;28;20137;-80
2023/12/02 01:06:21;;;;;;;10.07;6.60;;;;;;;0.06;100.00;98712.41;5074597;28;20083;-79
2023/12/02 01:09:05;;;;;;;11.98;7.22;;;;;;;-0.01;100.00;98706.97;5079980;28;20105;-80
2023/12/02 01:11:50;;;;;;;12.48;6.38;;;;;;;-0.13;100.00;98719.19;5079734;28;20050;-79
2023/12/02 01:14:34;;;;;;;12.43;7.07;;;;;;;-0.29;100.00;98714.53;5079181;28;20508;-79
2023/12/02 01:17:18;;;;;;;14.60;7.32;;;;;;;-0.35;100.00;98715.09;5074415;28;20048;-79
2023/12/02 01:20:03;;;;;;;14.90;7.90;;;;;;;-0.35;100.00;98709.94;5077170;28;20611;-80
2023/12/02 01:22:47;;;;;;;15.95;8.35;;;;;;;-0.27;100.00;98714.44;5077832;28;20133;-81
2023/12/02 01:25:31;;;;;;;13.20;7.70;;;;;;;-0.35;100.00;98709.94;5079380;28;20043;-79
2023/12/02 01:28:15;;;;;;;11.40;6.93;;;;;;;-0.28;100.00;98711.03;5079804;28;20120;-79
2023/12/02 01:30:59;;;;;;;16.25;8.98;;;;;;;-0.20;100.00;98723.25;5076817;28;20039;-80
2023/12/02 01:33:43;;;;;;;17.58;9.50;;;;;;;-0.19;100.00;98720.56;5078265;28;20085;-80
2023/12/02 01:36:26;;;;;;;19.02;9.85;;;;;;;-0.19;100.00;98723.13;5081482;28;20040;-80
2023/12/02 01:39:12;;;;;;;21.88;10.50;;;;;;;-0.15;100.00;98726.25;5084583;28;20044;-80
2023/12/02 01:41:57;;;;;;;19.13;9.48;;;;;;;-0.12;100.00;98720.00;5080319;28;20043;-82
2023/12/02 01:44:41;;;;;;;18.65;8.70;;;;;;;0.05;100.00;98724.53;5081644;28;20098;-79
2023/12/02 01:47:25;;;;;;;16.95;8.63;;;;;;;0.14;100.00;98715.16;5079453;28;20083;-81
2023/12/02 01:50:10;;;;;;;19.98;8.95;;;;;;;0.17;100.00;98721.78;5082543;28;20047;-81
2023/12/02 01:52:55;;;;;;;18.40;8.30;;;;;;;0.18;100.00;98720.84;5082484;28;20066;-81
2023/12/02 01:55:40;;;;;;;18.33;7.22;;;;;;;0.22;100.00;98717.88;5083888;28;20078;-79
2023/12/02 01:58:24;;;;;;;12.77;6.22;;;;;;;0.31;100.00;98728.34;5077617;28;20105;-80
2023/12/02 02:01:08;;;;;;;14.65;7.00;;;;;;;0.27;100.00;98712.28;5078290;28;20063;-80
2023/12/02 02:03:52;;;;;;;13.07;6.13;;;;;;;0.34;100.00;98731.44;5083738;28;20051;-82
2023/12/02 02:06:38;;;;;;;12.45;6.75;;;;;;;0.34;100.00;98723.69;5075333;28;20043;-80
2023/12/02 02:09:22;;;;;;;15.40;7.25;;;;;;;0.42;100.00;98726.44;5079876;28;20078;-79
2023/12/02 02:12:06;;;;;;;14.77;7.28;;;;;;;0.47;100.00;98723.41;5079498;28;20109;-80
2023/12/02 02:14:50;;;;;;;9.98;6.40;;;;;;;0.47;100.00;98720.03;5081130;28;20081;-81
2023/12/02 02:17:34;;;;;;;20.70;5.22;;;;;;;0.57;100.00;98736.31;5081832;28;20093;-81
2023/12/02 02:20:18;;;;;;;7.85;4.57;;;;;;;0.54;100.00;98732.25;5081915;28;20073;-81
2023/12/02 02:23:02;;;;;;;9.05;5.07;;;;;;;0.63;100.00;98730.63;5079657;28;20058;-81
2023/12/02 02:25:50;;;;;;;6.50;4.03;;;;;;;0.77;100.00;98736.28;5083962;28;20396;-80
2023/12/02 02:28:35;;;;;;;5.15;3.58;;;;;;;0.78;100.00;98740.50;5074143;28;20054;-81
2023/12/02 02:31:19;;;;;;;6.13;4.00;;;;;;;0.58;100.00;98743.13;5083492;28;20035;-84
2023/12/02 02:34:03;;;;;;;5.43;3.20;;;;;;;0.35;100.00;98742.59;5088425;28;20039;-83
2023/12/02 02:36:47;;;;;;;8.40;4.10;;;;;;;0.11;100.00;98752.38;5079242;28;20044;-83
2023/12/02 02:39:31;;;;;;;8.48;4.18;;;;;;;0.01;100.00;98759.28;5085358;28;20059;-82
2023/12/02 02:42:16;;;;;;;5.65;3.50;;;;;;;0.02;100.00;98748.03;5075341;28;20083;-83
2023/12/02 02:44:59;;;;;;;4.25;3.53;;;;;;;0.21;100.00;98746.41;5079131;28;20051;-83
2023/12/02 02:47:44;;;;;;;10.30;4.18;;;;;;;0.36;100.00;98750.19;5078447;28;20453;-84
2023/12/02 02:50:28;;;;;;;7.88;3.70;;;;;;;0.44;100.00;98759.06;5081270;28;20046;-85
2023/12/02 02:53:12;;;;;;;11.07;3.92;;;;;;;0.49;100.00;98757.69;5081375;28;20848;-84
2023/12/02 02:55:56;;;;;;;12.63;4.72;;;;;;;0.53;100.00;98746.13;5075618;28;20121;-85
2023/12/02 02:58:40;;;;;;;5.50;3.67;;;;;;;0.42;100.00;98741.94;5079168;28;20039;-84
2023/12/02 03:01:24;;;;;;;7.90;3.72;;;;;;;0.49;100.00;98739.63;5078548;28;20113;-84
2023/12/02 03:04:08;;;;;;;8.35;4.47;;;;;;;0.46;100.00;98739.06;5077886;28;20054;-85
2023/12/02 03:06:52;;;;;;;5.95;3.55;;;;;;;0.42;100.00;98744.50;5077259;28;20089;-83
2023/12/02 03:09:36;;;;;;;6.55;3.92;;;;;;;0.40;100.00;98740.41;5083001;28;20127;-82
2023/12/02 03:12:20;;;;;;;8.40;3.60;;;;;;;0.42;100.00;98741.94;5085010;28;20410;-83
2023/12/02 03:15:04;;;;;;;13.60;3.92;;;;;;;0.47;100.00;98745.88;5078214;28;20402;-81
2023/12/02 03:17:48;;;;;;;7.97;3.83;;;;;;;0.45;100.00;98740.03;5074428;28;20059;-82
2023/12/02 03:20:32;;;;;;;10.18;4.35;;;;;;;0.46;100.00;98737.28;5078651;28;20034;-81
2023/12/02 03:23:16;;;;;;;6.25;3.25;;;;;;;0.40;100.00;98741.25;5079298;28;20078;-81
2023/12/02 03:26:01;;;;;;;13.63;5.25;;;;;;;0.45;100.00;98748.56;5077211;28;20054;-81
2023/12/02 03:28:44;;;;;;;8.07;3.40;;;;;;;0.44;100.00;98740.97;5080363;28;20093;-81
2023/12/02 03:31:28;;;;;;;6.90;3.28;;;;;;;0.46;100.00;98749.41;5078139;28;20046;-80
2023/12/02 03:34:12;;;;;;;7.07;3.72;;;;;;;0.52;100.00;98744.50;5079706;28;20528;-82
2023/12/02 03:36:59;;;;;;;9.40;3.67;;;;;;;0.55;100.00;98741.66;5079796;28;20501;-82
2023/12/02 03:39:43;;;;;;;6.55;3.35;;;;;;;0.57;100.00;98736.31;5078521;28;20508;-82
2023/12/02 03:42:26;;;;;;;7.70;3.92;;;;;;;0.56;100.00;98737.28;5076837;28;20059;-82
2023/12/02 03:45:11;;;;;;;4.53;3.28;;;;;;;0.47;100.00;98735.53;5075461;28;20035;-81
2023/12/02 03:47:55;;;;;;;7.93;4.38;;;;;;;0.22;100.00;98732.56;5074316;28;20043;-81
2023/12/02 03:50:39;;;;;;;8.18;3.70;;;;;;;0.11;100.00;98744.63;5072027;28;20065;-82
2023/12/02 03:53:23;;;;;;;7.90;3.50;;;;;;;0.00;100.00;98739.59;5080000;28;20504;-81
2023/12/02 03:56:09;;;;;;;7.22;4.25;;;;;;;-0.16;100.00;98740.94;5080037;28;20093;-82
2023/12/02 03:58:53;;;;;;;7.68;4.00;;;;;;;-0.23;100.00;98737.22;5081799;28;20516;-82
2023/12/02 04:01:37;;;;;;;9.13;4.68;;;;;;;-0.04;100.00;98757.09;5079191;28;20444;-81
2023/12/02 04:04:21;;;;;;;11.10;6.25;;;;;;;0.05;100.00;98747.75;5079848;28;20476;-81
2023/12/02 04:07:05;;;;;;;10.02;5.13;;;;;;;0.27;100.00;98753.59;5076541;28;20038;-81
2023/12/02 04:09:49;;;;;;;10.10;6.18;;;;;;;0.37;100.00;98746.66;5080796;28;20105;-80
2023/12/02 04:12:35;;;;;;;9.77;5.70;;;;;;;0.41;100.00;98744.63;5075747;28;20123;-81
2023/12/02 04:15:21;;;;;;;13.20;5.88;;;;;;;0.40;100.00;98764.50;5078155;28;20104;-80
2023/12/02 04:18:05;;;;;;;13.63;5.13;;;;;;;0.37;100.00;98757.00;5081740;28;20039;-80
2023/12/02 04:20:49;;;;;;;13.23;5.63;;;;;;;0.33;100.00;98747.88;5075833;28;20169;-81
2023/12/02 04:23:37;;;;;;;13.00;5.28;;;;;;;0.33;100.00;98747.88;5077513;28;20093;-80
2023/12/02 04:26:22;;;;;;;16.88;6.88;;;;;;;0.40;100.00;98746.41;5085021;28;20127;-81
2023/12/02 04:29:06;;;;;;;27.40;8.75;;;;;;;0.41;100.00;98748.03;5076147;28;20054;-81
2023/12/02 04:31:51;;;;;;;22.35;8.23;;;;;;;0.47;100.00;98751.03;5077874;28;20093;-81
2023/12/02 04:34:35;;;;;;;24.73;8.15;;;;;;;0.41;100.00;98757.53;5081238;28;20047;-80
2023/12/02 04:37:23;;;;;;;26.15;8.80;;;;;;;0.44;100.00;98759.06;5078464;28;20149;-80
2023/12/02 04:40:11;;;;;;;23.90;8.00;;;;;;;0.27;100.00;98753.59;5079175;28;20153;-81
2023/12/02 04:42:55;;;;;;;19.95;7.80;;;;;;;0.11;100.00;98761.88;5075255;28;20051;-81
2023/12/02 04:45:39;;;;;;;21.33;7.82;;;;;;;-0.06;100.00;98755.59;5074950;28;20056;-80
2023/12/02 04:48:23;;;;;;;20.98;8.25;;;;;;;-0.16;100.00;98766.72;5076769;28;20127;-81
2023/12/02 04:51:07;;;;;;;17.83;7.78;;;;;;;-0.26;100.00;98747.81;5081346;28;20097;-80
2023/12/02 04:53:51;;;;;;;16.17;6.03;;;;;;;-0.29;100.00;98760.97;5089639;28;20085;-81
2023/12/02 04:56:35;;;;;;;21.73;7.47;;;;;;;-0.29;100.00;98766.13;5081837;28;20055;-82
2023/12/02 04:59:19;;;;;;;17.38;7.45;;;;;;;-0.24;100.00;98779.44;5079378;28;20527;-81
2023/12/02 05:02:03;;;;;;;18.25;7.85;;;;;;;-0.22;100.00;98771.59;5080714;28;20585;-81
2023/12/02 05:04:48;;;;;;;25.50;7.80;;;;;;;-0.31;100.00;98774.00;5081083;28;20102;-81
2023/12/02 05:07:32;;;;;;;19.67;7.13;;;;;;;-0.33;100.00;98775.88;5077767;28;20098;-81
2023/12/02 05:10:16;;;;;;;21.77;6.68;;;;;;;-0.38;100.00;98769.50;5080366;28;20513;-81
2023/12/02 05:13:00;;;;;;;20.50;8.13;;;;;;;-0.24;100.00;98774.28;5076686;28;20170;-81
2023/12/02 05:15:44;;;;;;;26.27;8.45;;;;;;;-0.11;100.00;98784.38;5080992;28;20096;-81
2023/12/02 05:18:29;;;;;;;31.25;8.82;;;;;;;0.02;100.00;98771.25;5081953;28;20104;-80
2023/12/02 05:21:13;;;;;;;25.13;8.35;;;;;;;0.08;100.00;98768.13;5080526;28;20097;-80
2023/12/02 05:23:56;;;;;;;22.83;8.63;;;;;;;0.20;100.00;98783.50;5082689;28;20127;-81
2023/12/02 05:26:40;;;;;;;21.38;8.40;;;;;;;0.19;100.00;98779.25;5086294;28;20378;-81
2023/12/02 05:29:24;;;;;;;22.77;8.70;;;;;;;0.08;100.00;98767.28;5082027;28;20454;-80
2023/12/02 05:32:08;;;;;;;23.58;8.85;;;;;;;0.11;100.00;98777.38;5081875;28;20031;-81
2023/12/02 05:34:53;;;;;;;24.45;8.60;;;;;;;0.12;100.00;98779.81;5083109;28;20067;-82
2023/12/02 05:37:37;;;;;;;22.73;8.95;;;;;;;0.10;100.00;98776.53;5078147;28;20513;-81
2023/12/02 05:40:21;;;;;;;22.98;8.68;;;;;;;0.16;100.00;98771.78;5079665;28;20052;-81
2023/12/02 05:43:05;;;;;;;23.90;8.82;;;;;;;0.11;100.00;98772.22;5075108;28;20038;-80
2023/12/02 05:45:49;;;;;;;26.92;9.40;;;;;;;0.07;100.00;98773.41;5078454;28;20401;-80
2023/12/02 05:48:33;;;;;;;24.83;9.65;;;;;;;0.05;100.00;98783.88;5077791;28;20039;-80
2023/12/02 05:51:17;;;;;;;28.52;10.27;;;;;;;0.26;100.00;98790.69;5081954;28;20048;-81
2023/12/02 05:54:01;;;;;;;36.85;10.57;;;;;;;0.35;100.00;98789.88;5083053;28;20335;-80
2023/12/02 05:56:45;;;;;;;29.38;9.98;;;;;;;0.28;100.00;98778.47;5080770;28;20893;-80
2023/12/02 05:59:29;;;;;;;30.63;11.48;;;;;;;0.31;100.00;98788.53;5080134;28;20059;-80
2023/12/02 06:02:13;;;;;;;32.28;11.55;;;;;;;0.40;100.00;98792.91;5079506;28;20131;-80
2023/12/02 06:04:57;;;;;;;28.90;11.18;;;;;;;0.31;100.00;98783.34;5078006;28;20094;-82
2023/12/02 06:07:41;;;;;;;36.78;15.38;;;;;;;0.35;100.00;98789.88;5079817;28;20403;-82
2023/12/02 06:10:25;;;;;;;37.38;13.70;;;;;;;0.27;100.00;98787.16;5080627;28;20101;-81
2023/12/02 06:13:09;;;;;;;35.05;11.68;;;;;;;0.22;100.00;98795.31;5079545;28;20043;-81
2023/12/02 06:15:53;;;;;;;25.45;11.02;;;;;;;0.24;100.00;98793.41;5076760;28;20031;-81
2023/12/02 06:18:37;;;;;;;32.05;11.88;;;;;;;0.31;100.00;98793.69;5078825;28;20406;-81
2023/12/02 06:21:21;;;;;;;28.80;11.40;;;;;;;0.19;100.00;98787.84;5079904;28;20123;-81
2023/12/02 06:24:05;;;;;;;30.15;12.10;;;;;;;0.10;100.00;98791.22;5079402;28;20066;-82
2023/12/02 06:26:50;;;;;;;31.67;11.13;;;;;;;-0.06;100.00;98786.56;5080308;28;19961;-80
2023/12/02 06:29:34;;;;;;;32.40;11.82;;;;;;;-0.15;100.00;98798.47;5077191;28;20398;-81
2023/12/02 06:32:18;;;;;;;43.65;13.07;;;;;;;-0.10;100.00;98805.84;5079508;28;20048;-81
2023/12/02 06:35:04;;;;;;;36.80;12.52;;;;;;;-0.07;100.00;98790.09;5078217;28;20052;-82
2023/12/02 06:37:49;;;;;;;31.00;11.82;;;;;;;-0.01;100.00;98802.44;5078913;28;20093;-82
2023/12/02 06:40:33;;;;;;;50.63;13.82;;;;;;;0.01;100.00;98800.59;5084046;28;20058;-80
2023/12/02 06:43:17;;;;;;;42.83;14.52;;;;;;;-0.01;100.00;98800.69;5080966;28;20047;-81
2023/12/02 06:46:01;;;;;;;53.75;14.73;;;;;;;0.11;100.00;98806.56;5075721;28;20422;-82
2023/12/02 06:48:45;;;;;;;47.30;15.32;;;;;;;0.18;100.00;98801.69;5080612;28;20089;-82
2023/12/02 06:51:29;;;;;;;50.40;14.75;;;;;;;0.25;100.00;98799.41;5079206;28;20205;-81
2023/12/02 06:54:13;;;;;;;46.92;14.18;;;;;;;0.27;100.00;98802.66;5085161;28;20055;-81
2023/12/02 06:56:57;;;;;;;62.28;18.17;;;;;;;0.24;100.00;98808.88;5075905;28;20114;-81
2023/12/02 06:59:44;;;;;;;58.85;18.25;;;;;;;0.13;100.00;98809.81;5081200;28;20043;-82
2023/12/02 07:02:28;;;;;;;61.83;17.38;;;;;;;0.03;100.00;98813.34;5079244;28;20087;-81
2023/12/02 07:05:12;;;;;;;61.10;16.75;;;;;;;0.10;100.00;98817.03;5074697;28;20039;-80
2023/12/02 07:07:56;;;;;;;51.60;17.83;;;;;;;0.03;100.00;98810.75;5078699;28;20234;-81
2023/12/02 07:10:40;;;;;;;65.90;19.90;;;;;;;-0.03;100.00;98817.25;5081669;28;20133;-81
2023/12/02 07:13:24;;;;;;;58.85;17.77;;;;;;;-0.09;100.00;98808.31;5078755;28;20078;-80
2023/12/02 07:16:09;;;;;;;43.65;13.70;;;;;;;-0.11;100.00;98811.94;5080138;28;20085;-80
2023/12/02 07:18:53;;;;;;;45.88;13.15;;;;;;;-0.20;100.00;98811.75;5079995;28;20035;-80
2023/12/02 07:21:37;;;;;;;36.25;12.90;;;;;;;-0.12;100.00;98812.91;5079664;28;20031;-80
2023/12/02 07:24:21;;;;;;;30.38;10.48;;;;;;;-0.16;100.00;98810.59;5075536;28;20528;-81
2023/12/02 07:27:05;;;;;;;32.03;11.88;;;;;;;-0.14;100.00;98823.34;5076018;28;20134;-81
2023/12/02 07:29:49;;;;;;;35.67;12.07;;;;;;;-0.16;100.00;98820.91;5082505;28;20520;-81
2023/12/02 07:32:33;;;;;;;34.35;13.43;;;;;;;-0.07;100.00;98813.31;5080865;28;20054;-83
2023/12/02 07:35:17;;;;;;;41.45;13.38;;;;;;;0.03;100.00;98821.91;5077418;28;20039;-81
2023/12/02 07:38:01;;;;;;;34.40;11.85;;;;;;;0.08;100.00;98812.00;5074193;28;20052;-81
2023/12/02 07:40:45;;;;;;;25.17;8.50;;;;;;;0.18;100.00;98813.75;5071498;28;20509;-83
2023/12/02 07:43:29;;;;;;;21.63;8.73;;;;;;;0.17;100.00;98817.28;5072607;28;20439;-82
2023/12/02 07:46:13;;;;;;;35.53;11.80;;;;;;;0.29;100.00;98816.25;5076559;28;20093;-82
2023/12/02 07:48:58;;;;;;;29.27;10.90;;;;;;;0.34;100.00;98816.66;5075600;28;20093;-80
2023/12/02 07:51:42;;;;;;;28.92;10.35;;;;;;;0.27;100.00;98828.47;5077111;28;20552;-80
2023/12/02 07:54:26;;;;;;;39.72;12.85;;;;;;;0.14;100.00;98823.56;5079216;28;20089;-81
2023/12/02 07:57:10;;;;;;;25.45;9.60;;;;;;;0.08;100.00;98830.06;5073418;28;20047;-80
2023/12/02 07:59:55;;;;;;;27.98;10.60;;;;;;;0.03;100.00;98821.91;5079290;28;20093;-80
2023/12/02 08:02:39;;;;;;;20.75;9.07;;;;;;;0.06;100.00;98825.97;5074123;28;20059;-80
2023/12/02 08:05:23;;;;;;;20.85;8.40;;;;;;;-0.01;100.00;98825.69;5079076;28;20046;-80
2023/12/02 08:08:07;;;;;;;38.03;13.18;;;;;;;0.10;100.00;98843.66;5082475;28;20056;-80
2023/12/02 08:10:51;;;;;;;37.35;12.57;;;;;;;0.16;100.00;98841.47;5078528;28;20048;-81
2023/12/02 08:13:36;;;;;;;31.88;10.40;;;;;;;0.22;100.00;98835.81;5084850;28;20096;-85
2023/12/02 08:16:20;;;;;;;29.10;10.80;;;;;;;0.23;100.00;98843.41;5078457;28;20100;-84
2023/12/02 08:19:04;;;;;;;37.83;13.77;;;;;;;0.32;100.00;98846.94;5078598;28;20043;-86
2023/12/02 08:21:49;;;;;;;36.08;15.10;;;;;;;0.28;100.00;98841.22;5089581;28;20043;-88
2023/12/02 08:24:35;;;;;;;38.58;13.93;;;;;;;0.39;100.00;98842.91;5088421;28;20128;-87
2023/12/02 08:27:21;;;;;;;33.08;13.00;;;;;;;0.38;100.00;98854.16;5079696;28;20098;-86
2023/12/02 08:30:07;;;;;;;25.13;11.73;;;;;;;0.35;100.00;98858.78;5086531;28;20089;-85
2023/12/02 08:32:51;;;;;;;24.90;11.50;;;;;;;0.40;100.00;98860.03;5074778;28;20094;-86
2023/12/02 08:35:46;;;;;;;25.05;10.10;;;;;;;0.31;100.00;98840.16;5080915;28;20090;-87
2023/12/02 08:38:30;;;;;;;20.85;8.57;;;;;;;0.42;100.00;98852.97;5083432;28;20047;-88
2023/12/02 08:41:14;;;;;;;18.15;7.13;;;;;;;0.52;100.00;98854.72;5081188;28;20060;-89
2023/12/02 08:43:59;;;;;;;17.33;7.43;;;;;;;0.58;100.00;98851.59;5082668;28;20401;-84
2023/12/02 08:46:43;;;;;;;22.38;8.32;;;;;;;0.55;100.00;98854.47;5090616;28;20043;-85
2023/12/02 08:49:27;;;;;;;19.13;7.60;;;;;;;0.57;100.00;98847.38;5085200;28;20505;-85
2023/12/02 08:52:11;;;;;;;18.80;7.65;;;;;;;0.63;100.00;98852.03;5086184;28;20440;-84
2023/12/02 08:54:55;;;;;;;19.30;8.25;;;;;;;0.65;100.00;98857.06;5099205;28;20055;-84
2023/12/02 08:57:39;;;;;;;19.77;8.50;;;;;;;0.61;100.00;98861.69;5098045;28;20055;-86
2023/12/02 09:00:23;;;;;;;16.25;7.97;;;;;;;0.66;100.00;98869.84;5088658;28;20039;-85
2023/12/02 09:03:07;;;;;;;19.20;8.73;;;;;;;0.66;100.00;98869.84;5091229;28;20097;-86
2023/12/02 09:05:55;;;;;;;24.08;9.40;;;;;;;0.67;100.00;98868.88;5082485;28;20039;-85
2023/12/02 09:08:39;;;;;;;26.08;10.65;;;;;;;0.70;100.00;98860.88;5084705;28;20043;-86
2023/12/02 09:11:23;;;;;;;23.98;10.75;;;;;;;0.67;100.00;98858.56;5084787;28;20047;-86
2023/12/02 09:14:07;;;;;;;25.17;10.43;;;;;;;0.74;100.00;98864.00;5081076;28;20044;-86
2023/12/02 09:16:51;;;;;;;26.83;10.77;;;;;;;0.77;100.00;98870.66;5089708;28;20085;-87
2023/12/02 09:19:53;;;;;;;28.00;11.30;;;;;;;0.78;100.00;98869.69;5083647;28;20095;-86
2023/12/02 09:22:46;;;;;;;28.58;11.25;;;;;;;0.81;100.00;98866.88;5075219;28;20102;-86
2023/12/02 09:25:35;;;;;;;30.10;13.07;;;;;;;0.89;100.00;98868.78;5084235;28;20881;-85
2023/12/02 09:28:26;;;;;;;30.50;13.32;;;;;;;0.94;100.00;98874.34;5076791;28;20040;-86
2023/12/02 09:31:12;;;;;;;33.28;13.38;;;;;;;1.04;100.00;98871.75;5088353;28;20082;-84
2023/12/02 09:34:02;;;;;;;30.38;12.18;;;;;;;1.09;100.00;98869.56;5080204;28;20065;-86
2023/12/02 09:36:47;;;;;;;32.20;13.57;;;;;;;1.10;100.00;98866.84;5086065;28;20539;-86
2023/12/02 09:40:06;;;;;;;29.42;13.75;;;;;;;1.16;100.00;98880.19;5086417;28;20066;-85
2023/12/02 09:43:14;;;;;;;30.83;13.02;;;;;;;1.22;100.00;98877.03;5083290;28;20043;-85
2023/12/02 09:46:17;;;;;;;19.20;8.93;;;;;;;1.43;100.00;98876.88;5076143;28;20039;-85
2023/12/02 09:49:07;;;;;;;18.92;8.30;;;;;;;1.48;100.00;98874.69;5086336;28;20035;-85
2023/12/02 09:52:16;;;;;;;15.68;6.95;;;;;;;1.52;100.00;98865.66;5084404;28;20615;-85
2023/12/02 09:55:06;;;;;;;20.60;7.85;;;;;;;1.61;100.00;98869.19;5084436;28;20043;-87
2023/12/02 09:58:08;;;;;;;17.25;7.30;;;;;;;1.53;100.00;98867.31;5082756;28;20048;-85
2023/12/02 10:01:02;;;;;;;14.68;7.28;;;;;;;1.76;100.00;98861.78;5080584;28;20059;-84
2023/12/02 10:04:25;;;;;;;18.73;7.22;;;;;;;1.75;100.00;98867.91;5079279;28;20110;-85
2023/12/02 10:07:34;;;;;;;17.73;7.22;;;;;;;1.75;100.00;98865.31;5031250;28;20190;-84
2023/12/02 10:10:22;;;;;;;12.20;7.05;;;;;;;1.85;100.00;98871.28;5084740;28;20040;-83
2023/12/02 10:13:18;;;;;;;14.30;7.50;;;;;;;1.87;100.00;98872.94;5082640;28;20048;-84
2023/12/02 10:16:10;;;;;;;13.40;6.35;;;;;;;1.88;100.00;98872.78;5077711;28;20045;-83
2023/12/02 10:18:58;;;;;;;19.52;8.25;;;;;;;1.93;100.00;98877.53;5084050;28;20050;-84
2023/12/02 10:21:47;;;;;;;16.83;6.72;;;;;;;1.96;100.00;98866.88;5083202;28;20046;-83
2023/12/02 10:25:05;;;;;;;15.57;7.30;;;;;;;1.98;100.00;98862.41;5085703;28;20082;-84
2023/12/02 10:27:52;;;;;;;14.60;7.38;;;;;;;1.89;100.00;98873.59;5081752;28;20097;-86
2023/12/02 10:30:45;;;;;;;13.80;7.80;;;;;;;1.90;100.00;98873.47;5087249;28;20051;-88
2023/12/02 10:33:47;;;;;;;15.73;7.60;;;;;;;1.88;100.00;98871.97;5103760;28;20092;-87
2023/12/02 10:36:33;;;;;;;21.15;8.57;;;;;;;1.91;100.00;98869.91;5085110;28;20043;-90
2023/12/02 10:39:43;;;;;;;17.58;8.15;;;;;;;1.91;100.00;98871.69;5093877;28;20065;-87
2023/12/02 10:42:34;;;;;;;16.58;7.78;;;;;;;1.99;100.00;98858.84;5081601;28;20550;-86
2023/12/02 10:45:19;;;;;;;17.23;8.02;;;;;;;2.11;100.00;98860.28;5077750;28;20194;-85
2023/12/02 10:48:04;;;;;;;15.75;7.80;;;;;;;2.17;100.00;98861.47;5057411;28;20124;-87
2023/12/02 10:50:49;;;;;;;16.35;7.07;;;;;;;2.22;100.00;98855.88;5080694;28;20065;-91
2023/12/02 10:53:36;;;;;;;13.75;7.30;;;;;;;2.36;100.00;98855.38;5081106;28;20119;-88
2023/12/02 10:56:23;;;;;;;18.05;6.75;;;;;;;2.31;100.00;98854.97;5081125;28;20567;-89
2023/12/02 10:59:08;;;;;;;13.68;7.60;;;;;;;2.28;100.00;98858.69;5080213;28;20039;-88
2023/12/02 11:02:16;;;;;;;18.13;8.88;;;;;;;2.26;100.00;98857.19;5084139;28;20063;-86
2023/12/02 11:05:23;;;;;;;14.63;7.93;;;;;;;2.23;100.00;98855.72;5075121;28;20101;-88
2023/12/02 11:08:14;;;;;;;14.65;6.43;;;;;;;2.18;100.00;98851.94;5089172;28;20085;-87
2023/12/02 11:10:59;;;;;;;12.75;5.95;;;;;;;2.28;100.00;98850.94;5083345;28;20047;-87
2023/12/02 11:13:47;;;;;;;12.05;5.88;;;;;;;2.30;100.00;98861.13;5091553;28;20527;-88
2023/12/02 11:16:42;;;;;;;14.77;7.75;;;;;;;2.42;100.00;98861.72;5081421;28;20086;-87
2023/12/02 11:20:24;;;;;;;13.65;7.55;;;;;;;2.42;100.00;98864.31;5077042;28;20131;-87
2023/12/02 11:23:31;;;;;;;15.80;7.00;;;;;;;2.56;100.00;98861.25;5023705;28;20403;-87
2023/12/02 11:26:47;;;;;;;11.48;6.55;;;;;;;2.64;100.00;98852.72;5052987;28;20135;-87
2023/12/02 11:29:53;;;;;;;11.50;5.93;;;;;;;2.67;100.00;98849.84;5075820;28;20038;-88
2023/12/02 11:32:49;;;;;;;11.02;5.47;;;;;;;2.71;100.00;98845.97;5083516;28;20077;-87
2023/12/02 11:35:42;;;;;;;10.98;5.28;;;;;;;2.68;100.00;98853.25;5088911;28;20527;-87
2023/12/02 11:38:32;;;;;;;12.23;5.75;;;;;;;2.75;100.00;98850.88;5080548;28;20110;-88
2023/12/02 11:41:57;;;;;;;14.25;5.72;;;;;;;2.72;100.00;98842.44;5087624;28;20047;-87
2023/12/02 11:44:57;;;;;;;12.13;5.82;;;;;;;2.71;100.00;98843.38;5088748;28;20052;-88
2023/12/02 11:48:05;;;;;;;13.65;7.85;;;;;;;2.78;100.00;98840.22;5074442;28;20130;-88
2023/12/02 11:50:55;;;;;;;12.57;6.70;;;;;;;2.60;100.00;98835.84;5080648;28;20117;-85
2023/12/02 11:54:04;;;;;;;15.13;6.57;;;;;;;2.70;100.00;98830.59;5082432;28;20062;-88
2023/12/02 11:57:15;;;;;;;11.95;5.90;;;;;;;2.65;100.00;98832.81;5088441;28;20032;-91
2023/12/02 12:00:06;;;;;;;9.70;5.47;;;;;;;2.88;100.00;98835.75;5080967;28;20051;-88
2023/12/02 12:03:09;;;;;;;12.40;6.85;;;;;;;2.93;100.00;98832.72;5083404;28;20051;-91
2023/12/02 12:06:15;;;;;;;12.97;6.20;;;;;;;2.91;100.00;98837.25;5085685;28;20544;-89
2023/12/02 12:09:27;;;;;;;13.90;6.65;;;;;;;2.79;100.00;98839.25;5079253;28;20051;-86
2023/12/02 12:12:14;;;;;;;10.52;6.38;;;;;;;2.79;100.00;98827.09;5092465;28;20039;-88
2023/12/02 12:15:01;;;;;;;14.25;6.97;;;;;;;2.78;100.00;98832.44;5091961;28;20073;-90
2023/12/02 12:17:45;;;;;;;13.93;6.95;;;;;;;2.78;100.00;98829.84;5080723;28;20092;-91
2023/12/02 12:20:31;;;;;;;12.73;6.82;;;;;;;2.76;100.00;98831.78;5081398;28;20085;-90
2023/12/02 12:23:15;;;;;;;12.65;7.10;;;;;;;2.77;100.00;98834.22;5082486;28;20097;-89
2023/12/02 12:26:00;;;;;;;12.90;7.00;;;;;;;2.67;100.00;98829.09;5082715;28;20087;-90
2023/12/02 12:28:43;;;;;;;15.57;7.15;;;;;;;2.83;100.00;98832.81;5081776;28;20047;-89
2023/12/02 12:31:29;;;;;;;12.02;6.78;;;;;;;2.79;100.00;98823.72;5082129;28;20055;-91
2023/12/02 12:34:14;;;;;;;9.85;6.10;;;;;;;2.82;100.00;98818.22;5080846;28;20410;-90
2023/12/02 12:36:59;;;;;;;15.38;7.40;;;;;;;2.87;100.00;98813.38;5080607;28;20102;-88
2023/12/02 12:39:44;;;;;;;16.02;8.43;;;;;;;2.83;100.00;98812.06;5081262;28;20078;-89
2023/12/02 12:42:28;;;;;;;12.88;6.72;;;;;;;2.87;100.00;98812.59;5079318;28;20047;-90
2023/12/02 12:45:13;;;;;;;12.93;7.10;;;;;;;2.89;100.00;98798.50;5078259;28;20046;-82
2023/12/02 12:47:58;;;;;;;16.42;7.47;;;;;;;2.87;100.00;98807.41;5072300;28;20051;-81
2023/12/02 12:50:43;;;;;;;12.63;7.07;;;;;;;2.85;100.00;98798.00;5072003;28;20089;-81
2023/12/02 12:53:31;;;;;;;17.05;6.97;;;;;;;2.91;100.00;98804.34;5077457;28;20073;-82